METAR Data
IDs: Format: Raw Decoded Include TAF

Data at: 0055 UTC 20 Jul 2019

METAR for:PANC (Anchorage Intl, AK, US)
Text:PANC 192353Z 25007KT 10SM FEW030 FEW055 SCT100 BKN200 23/13 A2994 RMK AO2 SLP138 FU FEW030 T02330133 10244 20206 53002
Temperature: 23.3°C ( 74°F)
Dewpoint: 13.3°C ( 56°F) [RH = 53%]
Pressure (altimeter):29.94 inches Hg (1014.0 mb) [Sea level pressure: 1013.8 mb]
Winds:from the WSW (250 degrees) at 8 MPH (7 knots; 3.6 m/s)
Visibility:10 or more sm (16+ km)
Ceiling:20000 feet AGL
Clouds: few clouds at 3000 feet AGL, few clouds at 5500 feet AGL, scattered clouds at 10000 feet AGL, broken clouds at 20000 feet AGL
Text:PANC 192253Z 30007KT 9SM FEW030 FEW055 SCT100 BKN200 23/13 A2993 RMK AO2 SLP136 FU FEW030 T02330133
Temperature: 23.3°C ( 74°F)
Dewpoint: 13.3°C ( 56°F) [RH = 53%]
Pressure (altimeter):29.93 inches Hg (1013.6 mb) [Sea level pressure: 1013.6 mb]
Winds:from the WNW (300 degrees) at 8 MPH (7 knots; 3.6 m/s)
Visibility: 9 sm ( 14 km)
Ceiling:20000 feet AGL
Clouds: few clouds at 3000 feet AGL, few clouds at 5500 feet AGL, scattered clouds at 10000 feet AGL, broken clouds at 20000 feet AGL
Text:PANC 192153Z 31006KT 10SM FEW040 FEW055 SCT100 BKN200 24/14 A2993 RMK AO2 SLP135 FU FEW040 TCU DSNT E T02390144
Temperature: 23.9°C ( 75°F)
Dewpoint: 14.4°C ( 58°F) [RH = 55%]
Pressure (altimeter):29.93 inches Hg (1013.6 mb) [Sea level pressure: 1013.5 mb]
Winds:from the NW (310 degrees) at 7 MPH (6 knots; 3.1 m/s)
Visibility:10 or more sm (16+ km)
Ceiling:20000 feet AGL
Clouds: few clouds at 4000 feet AGL, few clouds at 5500 feet AGL, scattered clouds at 10000 feet AGL, broken clouds at 20000 feet AGL
Text:PANC 192053Z 20007KT 10SM FEW055 SCT100 BKN200 23/13 A2993 RMK AO2 SLP135 TCU DSNT E T02280128 53005
Temperature: 22.8°C ( 73°F)
Dewpoint: 12.8°C ( 55°F) [RH = 53%]
Pressure (altimeter):29.93 inches Hg (1013.6 mb) [Sea level pressure: 1013.5 mb]
Winds:from the SSW (200 degrees) at 8 MPH (7 knots; 3.6 m/s)
Visibility:10 or more sm (16+ km)
Ceiling:20000 feet AGL
Clouds: few clouds at 5500 feet AGL, scattered clouds at 10000 feet AGL, broken clouds at 20000 feet AGL
Text:PANC 191953Z 24005KT 10SM FEW055 SCT100 BKN200 21/12 A2993 RMK AO2 SLP134 ACC E T02060122
Temperature: 20.6°C ( 69°F)
Dewpoint: 12.2°C ( 54°F) [RH = 59%]
Pressure (altimeter):29.93 inches Hg (1013.6 mb) [Sea level pressure: 1013.4 mb]
Winds:from the WSW (240 degrees) at 6 MPH (5 knots; 2.6 m/s)
Visibility:10 or more sm (16+ km)
Ceiling:20000 feet AGL
Clouds: few clouds at 5500 feet AGL, scattered clouds at 10000 feet AGL, broken clouds at 20000 feet AGL

TAF for:PANC (Anchorage Intl, AK, US) issued at 2335 UTC 19 Jul 2019
Text:PANC 192335Z 2000/2106 30007KT P6SM SCT100 BKN200
Forecast period:0000 to 0100 UTC 20 July 2019
Forecast type:FROM: standard forecast or significant change
Winds:from the WNW (300 degrees) at 8 MPH (7 knots; 3.6 m/s)
Visibility:6 or more sm (10+ km)
Ceiling:20000 feet AGL
Clouds: scattered clouds at 10000 feet AGL, broken clouds at 20000 feet AGL
Text:FM200100 18010G20KT P6SM SCT050 BKN200
Forecast period:0100 to 0900 UTC 20 July 2019
Forecast type:FROM: standard forecast or significant change
Winds:from the S (180 degrees) at 12 MPH (10 knots; 5.1 m/s) gusting to 23 MPH (20 knots; 10.3 m/s)
Visibility:6 or more sm (10+ km)
Ceiling:20000 feet AGL
Clouds: scattered clouds at 5000 feet AGL, broken clouds at 20000 feet AGL
Text:FM200900 17008KT P6SM SCT045 BKN120
Forecast period:0900 to 1600 UTC 20 July 2019
Forecast type:FROM: standard forecast or significant change
Winds:from the S (170 degrees) at 9 MPH (8 knots; 4.1 m/s)
Visibility:6 or more sm (10+ km)
Ceiling:12000 feet AGL
Clouds: scattered clouds at 4500 feet AGL, broken clouds at 12000 feet AGL
Text:FM201600 20005KT 5SM FU SCT001 SCT045 BKN080
Forecast period:1600 to 2000 UTC 20 July 2019
Forecast type:FROM: standard forecast or significant change
Winds:from the SSW (200 degrees) at 6 MPH (5 knots; 2.6 m/s)
Visibility: 5 sm ( 8 km)
Ceiling:8000 feet AGL
Clouds: scattered clouds at 100 feet AGL, scattered clouds at 4500 feet AGL, broken clouds at 8000 feet AGL
Weather:FU (smoke)
Text:FM202000 VRB04KT P6SM SCT025 BKN050
Forecast period:2000 UTC 20 July 2019 to 0600 UTC 21 July 2019
Forecast type:FROM: standard forecast or significant change
Winds:variable direction winds at 5 MPH (4 knots; 2.1 m/s)
Visibility:6 or more sm (10+ km)
Ceiling:5000 feet AGL
Clouds: scattered clouds at 2500 feet AGL, broken clouds at 5000 feet AGL